createdAt,value
2017-09-17T00:00:17.697Z,0.00
2017-09-17T00:01:17.658Z,0.00
2017-09-17T00:02:17.621Z,0.00
2017-09-17T00:03:17.594Z,0.00
2017-09-17T00:04:17.553Z,0.00
2017-09-17T00:05:17.512Z,0.00
2017-09-17T00:06:17.477Z,0.00
2017-09-17T00:07:17.443Z,0.00
2017-09-17T00:08:17.408Z,0.00
2017-09-17T00:09:17.372Z,0.00
2017-09-17T00:10:17.335Z,0.00
2017-09-17T00:11:17.297Z,0.00
2017-09-17T00:12:17.265Z,0.00
2017-09-17T00:13:17.226Z,0.00
2017-09-17T00:14:17.192Z,0.00
2017-09-17T00:15:17.156Z,0.00
2017-09-17T00:16:17.121Z,0.00
2017-09-17T00:17:17.082Z,0.00
2017-09-17T00:18:17.051Z,0.00
2017-09-17T00:19:17.013Z,0.00
2017-09-17T00:20:16.987Z,0.00
2017-09-17T00:21:16.938Z,0.00
2017-09-17T00:22:16.905Z,0.00
2017-09-17T00:23:16.869Z,0.00
2017-09-17T00:24:16.833Z,0.00
2017-09-17T00:25:16.794Z,0.00
2017-09-17T00:26:16.763Z,0.00
2017-09-17T00:27:16.725Z,0.00
2017-09-17T00:28:16.688Z,0.00
2017-09-17T00:29:16.651Z,0.00
2017-09-17T00:30:16.617Z,0.00
2017-09-17T00:31:16.585Z,0.00
2017-09-17T00:32:16.546Z,0.00
2017-09-17T00:33:16.512Z,0.00
2017-09-17T00:34:16.474Z,0.00
2017-09-17T00:35:16.437Z,0.00
2017-09-17T00:36:16.400Z,0.00
2017-09-17T00:37:16.363Z,0.00
2017-09-17T00:38:16.330Z,0.00
2017-09-17T00:39:16.302Z,0.00
2017-09-17T00:40:16.258Z,0.00
2017-09-17T00:41:16.225Z,0.00
2017-09-17T00:42:16.186Z,0.00
2017-09-17T00:43:16.150Z,0.00
2017-09-17T00:44:16.114Z,0.00
2017-09-17T00:45:16.077Z,0.00
2017-09-17T00:46:16.040Z,0.00
2017-09-17T00:47:16.007Z,0.00
2017-09-17T00:48:15.966Z,0.00
2017-09-17T00:49:15.931Z,0.00
2017-09-17T00:50:15.895Z,0.00
2017-09-17T00:51:15.861Z,0.00
2017-09-17T00:52:15.823Z,0.00
2017-09-17T00:53:15.787Z,0.00
2017-09-17T00:54:15.754Z,0.00
2017-09-17T00:55:15.720Z,0.00
2017-09-17T00:56:15.683Z,0.00
2017-09-17T00:57:15.640Z,0.00
2017-09-17T00:58:15.605Z,0.00
2017-09-17T00:59:15.585Z,0.00
2017-09-17T01:00:15.535Z,0.00
2017-09-17T01:01:15.497Z,0.00
2017-09-17T01:02:15.461Z,0.00
2017-09-17T01:03:15.425Z,0.00
2017-09-17T01:04:15.391Z,0.00
2017-09-17T01:05:15.350Z,0.00
2017-09-17T01:06:15.318Z,0.00
2017-09-17T01:07:15.287Z,0.00
2017-09-17T01:08:15.251Z,0.00
2017-09-17T01:09:15.253Z,0.00
2017-09-17T01:10:15.180Z,0.00
2017-09-17T01:11:15.135Z,0.00
2017-09-17T01:12:15.110Z,0.00
2017-09-17T01:13:15.062Z,0.00
2017-09-17T01:14:15.045Z,0.00
2017-09-17T01:15:14.994Z,0.00
2017-09-17T01:16:14.953Z,0.00
2017-09-17T01:17:14.915Z,0.00
2017-09-17T01:18:14.884Z,0.00
2017-09-17T01:19:14.847Z,0.00
2017-09-17T01:20:14.826Z,0.00
2017-09-17T01:21:14.774Z,0.00
2017-09-17T01:22:14.744Z,0.00
2017-09-17T01:23:14.701Z,0.00
2017-09-17T01:24:14.674Z,0.00
2017-09-17T01:25:14.632Z,0.00
2017-09-17T01:26:14.591Z,0.00
2017-09-17T01:27:14.560Z,0.00
2017-09-17T01:28:14.528Z,0.00
2017-09-17T01:29:14.508Z,0.00
2017-09-17T01:30:14.464Z,0.00
2017-09-17T01:31:14.416Z,0.00
2017-09-17T01:32:14.375Z,0.00
2017-09-17T01:33:14.359Z,0.00
2017-09-17T01:34:14.307Z,0.00
2017-09-17T01:35:14.267Z,0.00
2017-09-17T01:36:14.233Z,0.00
2017-09-17T01:37:14.204Z,0.00
2017-09-17T01:38:14.159Z,0.00
2017-09-17T01:39:14.121Z,0.00
2017-09-17T01:40:14.099Z,0.00
2017-09-17T01:41:14.077Z,0.00
2017-09-17T01:42:14.016Z,0.00
2017-09-17T01:43:13.985Z,0.00
2017-09-17T01:44:13.940Z,0.00
2017-09-17T01:45:13.900Z,0.00
2017-09-17T01:46:13.866Z,0.00
2017-09-17T01:47:13.825Z,0.00
2017-09-17T01:48:13.792Z,0.00
2017-09-17T01:49:13.754Z,0.00
2017-09-17T01:50:13.723Z,0.00
2017-09-17T01:51:13.679Z,0.00
2017-09-17T01:52:13.645Z,0.00
2017-09-17T01:53:13.608Z,0.00
2017-09-17T01:54:13.576Z,0.00
2017-09-17T01:55:13.532Z,0.00
2017-09-17T01:56:13.499Z,0.00
2017-09-17T01:57:13.464Z,0.00
2017-09-17T01:58:13.425Z,0.00
2017-09-17T01:59:13.390Z,0.00
2017-09-17T02:00:13.353Z,0.00
2017-09-17T02:01:13.317Z,0.00
2017-09-17T02:02:13.277Z,0.00
2017-09-17T02:03:13.241Z,0.00
2017-09-17T02:04:13.228Z,0.00
2017-09-17T02:05:13.183Z,0.00
2017-09-17T02:06:13.133Z,0.00
2017-09-17T02:07:13.096Z,0.00
2017-09-17T02:08:13.062Z,0.00
2017-09-17T02:09:13.022Z,0.00
2017-09-17T02:10:12.990Z,0.00
2017-09-17T02:11:12.952Z,0.00
2017-09-17T02:12:12.915Z,0.00
2017-09-17T02:13:12.883Z,0.00
2017-09-17T02:14:12.860Z,0.00
2017-09-17T02:15:12.802Z,0.00
2017-09-17T02:16:12.768Z,0.00
2017-09-17T02:17:12.732Z,0.00
2017-09-17T02:18:12.693Z,0.00
2017-09-17T02:19:12.656Z,0.00
2017-09-17T02:20:12.621Z,0.00
2017-09-17T02:21:12.588Z,0.00
2017-09-17T02:22:12.549Z,0.00
2017-09-17T02:23:12.512Z,0.00
2017-09-17T02:24:12.478Z,0.00
2017-09-17T02:25:12.438Z,0.00
2017-09-17T02:26:12.400Z,0.00
2017-09-17T02:27:12.367Z,0.00
2017-09-17T02:28:12.331Z,0.00
2017-09-17T02:29:12.291Z,0.00
2017-09-17T02:30:12.257Z,0.00
2017-09-17T02:31:12.219Z,0.00
2017-09-17T02:32:12.183Z,0.00
2017-09-17T02:33:12.146Z,0.00
2017-09-17T02:34:12.108Z,0.00
2017-09-17T02:35:12.077Z,0.00
2017-09-17T02:36:12.037Z,0.00
2017-09-17T02:37:12.002Z,0.00
2017-09-17T02:38:11.959Z,0.00
2017-09-17T02:39:11.935Z,0.00
2017-09-17T02:40:11.893Z,0.00
2017-09-17T02:41:11.856Z,0.00
2017-09-17T02:42:11.822Z,0.00
2017-09-17T02:43:11.777Z,0.00
2017-09-17T02:44:11.740Z,0.00
2017-09-17T02:45:11.707Z,0.00
2017-09-17T02:46:11.669Z,0.00
2017-09-17T02:47:11.634Z,0.00
2017-09-17T02:48:11.599Z,0.00
2017-09-17T02:49:11.578Z,0.00
2017-09-17T02:50:11.521Z,0.00
2017-09-17T02:51:11.486Z,0.00
2017-09-17T02:52:11.448Z,0.00
2017-09-17T02:53:11.409Z,0.00
2017-09-17T02:54:11.375Z,0.00
2017-09-17T02:55:11.337Z,0.00
2017-09-17T02:56:11.300Z,0.00
2017-09-17T02:57:11.264Z,0.00
2017-09-17T02:58:11.228Z,0.00
2017-09-17T02:59:11.216Z,0.00
2017-09-17T03:00:11.159Z,0.00
2017-09-17T03:01:11.117Z,0.00
2017-09-17T03:02:11.079Z,0.00
2017-09-17T03:03:11.049Z,0.00
2017-09-17T03:04:11.007Z,0.00
2017-09-17T03:05:10.971Z,0.00
2017-09-17T03:06:10.933Z,0.00
2017-09-17T03:07:10.897Z,0.00
2017-09-17T03:08:10.864Z,0.00
2017-09-17T03:09:10.826Z,0.00
2017-09-17T03:10:10.787Z,0.00
2017-09-17T03:11:10.772Z,0.00
2017-09-17T03:12:10.712Z,0.00
2017-09-17T03:13:10.679Z,0.00
2017-09-17T03:14:10.638Z,0.00
2017-09-17T03:15:10.601Z,0.00
2017-09-17T03:16:10.564Z,0.00
2017-09-17T03:17:10.529Z,0.00
2017-09-17T03:18:10.488Z,0.00
2017-09-17T03:19:10.455Z,0.00
2017-09-17T03:20:10.417Z,0.00
2017-09-17T03:21:10.379Z,0.00
2017-09-17T03:22:10.348Z,0.00
2017-09-17T03:23:10.306Z,0.00
2017-09-17T03:24:10.271Z,0.00
2017-09-17T03:25:10.235Z,0.00
2017-09-17T03:26:10.196Z,0.00
2017-09-17T03:27:10.164Z,0.00
2017-09-17T03:28:10.129Z,0.00
2017-09-17T03:29:10.087Z,0.00
2017-09-17T03:30:10.051Z,0.00
2017-09-17T03:31:10.014Z,0.00
2017-09-17T03:32:09.983Z,0.00
2017-09-17T03:33:09.937Z,0.00
2017-09-17T03:34:09.903Z,0.00
2017-09-17T03:35:09.865Z,0.00
2017-09-17T03:36:09.857Z,0.00
2017-09-17T03:37:09.788Z,0.00
2017-09-17T03:38:09.753Z,0.00
2017-09-17T03:39:09.729Z,0.00
2017-09-17T03:40:09.687Z,0.00
2017-09-17T03:41:09.647Z,0.00
2017-09-17T03:42:09.604Z,0.00
2017-09-17T03:43:09.569Z,0.00
2017-09-17T03:44:09.544Z,0.00
2017-09-17T03:45:09.497Z,0.00
2017-09-17T03:46:09.471Z,0.00
2017-09-17T03:47:09.429Z,0.00
2017-09-17T03:48:09.391Z,0.00
2017-09-17T03:49:09.350Z,0.00
2017-09-17T03:50:09.312Z,0.00
2017-09-17T03:51:09.274Z,0.00
2017-09-17T03:52:09.241Z,0.00
2017-09-17T03:53:09.230Z,0.00
2017-09-17T03:54:09.173Z,0.00
2017-09-17T03:55:09.134Z,0.00
2017-09-17T03:56:09.088Z,0.00
2017-09-17T03:57:09.054Z,0.00
2017-09-17T03:58:09.021Z,0.00
2017-09-17T03:59:08.977Z,0.00
2017-09-17T04:00:08.962Z,0.00
2017-09-17T04:01:08.917Z,0.00
2017-09-17T04:02:08.871Z,0.00
2017-09-17T04:03:08.833Z,0.00
2017-09-17T04:04:08.806Z,0.00
2017-09-17T04:05:08.759Z,0.00
2017-09-17T04:06:08.737Z,0.00
2017-09-17T04:07:08.689Z,4.00
2017-09-17T04:08:08.648Z,4.00
2017-09-17T04:09:08.616Z,0.00
2017-09-17T04:10:08.589Z,4.00
2017-09-17T04:11:08.538Z,4.00
2017-09-17T04:12:08.509Z,8.00
2017-09-17T04:13:08.496Z,4.00
2017-09-17T04:14:08.423Z,8.00
2017-09-17T04:15:08.389Z,8.00
2017-09-17T04:16:08.351Z,8.00
2017-09-17T04:17:08.314Z,12.00
2017-09-17T04:18:08.286Z,12.00
2017-09-17T04:19:08.243Z,12.00
2017-09-17T04:20:08.203Z,16.00
2017-09-17T04:21:08.165Z,16.00
2017-09-17T04:22:08.131Z,20.00
2017-09-17T04:23:08.093Z,28.00
2017-09-17T04:24:08.054Z,32.00
2017-09-17T04:25:08.019Z,36.00
2017-09-17T04:26:07.980Z,44.00
2017-09-17T04:27:07.944Z,48.00
2017-09-17T04:28:07.906Z,60.00
2017-09-17T04:29:07.869Z,68.00
2017-09-17T04:30:07.842Z,80.00
2017-09-17T04:31:07.797Z,92.00
2017-09-17T04:32:07.759Z,104.00
2017-09-17T04:33:07.721Z,120.00
2017-09-17T04:34:07.685Z,140.00
2017-09-17T04:35:07.653Z,156.00
2017-09-17T04:36:07.612Z,176.00
2017-09-17T04:37:07.573Z,200.00
2017-09-17T04:38:07.543Z,224.00
2017-09-17T04:39:07.498Z,244.00
2017-09-17T04:40:07.468Z,276.00
2017-09-17T04:41:07.426Z,304.00
2017-09-17T04:42:07.391Z,340.00
2017-09-17T04:43:07.351Z,376.00
2017-09-17T04:44:07.314Z,420.00
2017-09-17T04:45:07.280Z,460.00
2017-09-17T04:46:07.239Z,508.00
2017-09-17T04:47:07.206Z,556.00
2017-09-17T04:48:07.174Z,608.00
2017-09-17T04:49:07.130Z,664.00
2017-09-17T04:50:07.091Z,724.00
2017-09-17T04:51:07.053Z,788.00
2017-09-17T04:52:07.020Z,848.00
2017-09-17T04:53:06.977Z,900.00
2017-09-17T04:54:06.947Z,952.00
2017-09-17T04:55:06.908Z,1008.00
2017-09-17T04:56:06.873Z,1084.00
2017-09-17T04:57:06.832Z,1180.00
2017-09-17T04:58:06.795Z,1276.00
2017-09-17T04:59:06.758Z,1384.00
2017-09-17T05:00:06.730Z,1420.00
2017-09-17T05:01:06.682Z,1536.00
2017-09-17T05:02:06.647Z,1736.00
2017-09-17T05:03:06.615Z,1900.00
2017-09-17T05:04:06.573Z,2000.00
2017-09-17T05:05:06.536Z,2028.00
2017-09-17T05:06:06.498Z,2152.00
2017-09-17T05:07:06.462Z,2412.00
2017-09-17T05:08:06.425Z,2908.00
2017-09-17T05:09:06.393Z,3088.00
2017-09-17T05:10:06.349Z,2840.00
2017-09-17T05:11:06.319Z,4128.00
2017-09-17T05:12:06.278Z,4160.00
2017-09-17T05:13:06.242Z,4612.00
2017-09-17T05:14:06.210Z,4908.00
2017-09-17T05:15:06.171Z,5064.00
2017-09-17T05:16:06.133Z,5044.00
2017-09-17T05:17:06.094Z,5752.00
2017-09-17T05:18:06.066Z,5924.00
2017-09-17T05:19:06.022Z,6288.00
2017-09-17T05:20:05.988Z,6500.00
2017-09-17T05:21:05.950Z,6460.00
2017-09-17T05:22:05.921Z,6784.00
2017-09-17T05:23:05.888Z,6764.00
2017-09-17T05:24:05.843Z,7068.00
2017-09-17T05:25:05.808Z,7444.00
2017-09-17T05:26:05.771Z,7768.00
2017-09-17T05:27:05.738Z,7948.00
2017-09-17T05:28:05.702Z,8308.00
2017-09-17T05:29:05.666Z,7356.00
2017-09-17T05:30:05.633Z,8324.00
2017-09-17T05:31:05.595Z,8552.00
2017-09-17T05:32:05.561Z,8260.00
2017-09-17T05:33:05.532Z,8572.00
2017-09-17T05:34:05.493Z,9812.00
2017-09-17T05:35:05.462Z,9836.00
2017-09-17T05:36:05.421Z,9720.00
2017-09-17T05:37:05.388Z,9872.00
2017-09-17T05:38:05.355Z,9464.00
2017-09-17T05:39:05.319Z,8372.00
2017-09-17T05:40:05.293Z,7748.00
2017-09-17T05:41:05.254Z,6852.00
2017-09-17T05:42:05.217Z,7320.00
2017-09-17T05:43:05.183Z,7804.00
2017-09-17T05:44:05.151Z,10140.00
2017-09-17T05:45:05.117Z,11148.00
2017-09-17T05:46:05.082Z,10224.00
2017-09-17T05:47:05.052Z,10592.00
2017-09-17T05:48:05.017Z,10816.00
2017-09-17T05:49:04.981Z,10832.00
2017-09-17T05:50:04.950Z,10512.00
2017-09-17T05:51:04.917Z,9980.00
2017-09-17T05:52:04.881Z,10644.00
2017-09-17T05:53:04.854Z,11180.00
2017-09-17T05:54:04.815Z,11760.00
2017-09-17T05:55:04.783Z,12036.00
2017-09-17T05:56:04.761Z,12188.00
2017-09-17T05:57:04.715Z,12208.00
2017-09-17T05:58:04.683Z,11712.00
2017-09-17T05:59:04.649Z,11424.00
2017-09-17T06:00:04.626Z,11300.00
2017-09-17T06:01:04.589Z,11592.00
2017-09-17T06:02:04.553Z,12128.00
2017-09-17T06:03:04.530Z,12304.00
2017-09-17T06:04:04.488Z,12500.00
2017-09-17T06:05:04.471Z,12984.00
2017-09-17T06:06:04.423Z,12996.00
2017-09-17T06:07:04.393Z,12752.00
2017-09-17T06:08:04.361Z,12488.00
2017-09-17T06:09:04.332Z,12240.00
2017-09-17T06:10:04.295Z,12524.00
2017-09-17T06:11:04.264Z,12796.00
2017-09-17T06:12:04.235Z,13116.00
2017-09-17T06:13:04.201Z,12968.00
2017-09-17T06:14:04.169Z,12680.00
2017-09-17T06:15:04.144Z,12708.00
2017-09-17T06:16:04.112Z,12872.00
2017-09-17T06:17:04.078Z,13116.00
2017-09-17T06:18:04.045Z,13372.00
2017-09-17T06:19:04.015Z,13644.00
2017-09-17T06:20:03.988Z,13604.00
2017-09-17T06:21:03.968Z,12764.00
2017-09-17T06:22:03.920Z,11384.00
2017-09-17T06:23:03.904Z,10712.00
2017-09-17T06:24:03.881Z,12244.00
2017-09-17T06:25:03.831Z,13056.00
2017-09-17T06:26:03.802Z,12244.00
2017-09-17T06:27:03.776Z,11952.00
2017-09-17T06:28:03.748Z,11680.00
2017-09-17T06:29:03.709Z,11572.00
2017-09-17T06:30:03.774Z,11104.00
2017-09-17T06:31:03.650Z,10444.00
2017-09-17T06:32:03.630Z,10188.00
2017-09-17T06:33:03.586Z,9944.00
2017-09-17T06:34:03.566Z,9732.00
2017-09-17T06:35:03.551Z,9916.00
2017-09-17T06:36:03.504Z,9884.00
2017-09-17T06:37:03.468Z,9920.00
2017-09-17T06:38:03.438Z,9824.00
2017-09-17T06:39:03.414Z,9724.00
2017-09-17T06:40:03.384Z,9528.00
2017-09-17T06:41:03.354Z,9348.00
2017-09-17T06:42:03.319Z,9128.00
2017-09-17T06:43:03.301Z,8780.00
2017-09-17T06:44:03.261Z,8692.00
2017-09-17T06:45:03.230Z,8584.00
2017-09-17T06:46:03.215Z,8796.00
2017-09-17T06:47:03.186Z,8896.00
2017-09-17T06:48:03.146Z,8552.00
2017-09-17T06:49:03.134Z,8248.00
2017-09-17T06:50:03.087Z,8160.00
2017-09-17T06:51:03.063Z,8180.00
2017-09-17T06:52:03.024Z,8060.00
2017-09-17T06:53:02.997Z,8076.00
2017-09-17T06:54:02.963Z,7936.00
2017-09-17T06:55:02.932Z,7372.00
2017-09-17T06:56:02.911Z,7332.00
2017-09-17T06:57:02.878Z,7568.00
2017-09-17T06:58:02.843Z,7636.00
2017-09-17T06:59:02.815Z,7708.00
2017-09-17T07:00:02.799Z,7792.00
2017-09-17T07:01:02.755Z,7680.00
2017-09-17T07:02:02.724Z,7764.00
2017-09-17T07:03:02.693Z,7768.00
2017-09-17T07:04:02.667Z,7848.00
2017-09-17T07:05:02.632Z,7760.00
2017-09-17T07:06:02.601Z,7716.00
2017-09-17T07:07:02.579Z,7704.00
2017-09-17T07:08:02.538Z,7656.00
2017-09-17T07:09:02.517Z,7560.00
2017-09-17T07:10:02.482Z,7552.00
2017-09-17T07:11:02.448Z,7684.00
2017-09-17T07:12:02.421Z,7844.00
2017-09-17T07:13:02.383Z,7944.00
2017-09-17T07:14:02.359Z,8144.00
2017-09-17T07:15:02.323Z,8052.00
2017-09-17T07:16:02.293Z,7976.00
2017-09-17T07:17:02.261Z,7984.00
2017-09-17T07:18:02.229Z,7956.00
2017-09-17T07:19:02.197Z,7944.00
2017-09-17T07:20:02.167Z,7828.00
2017-09-17T07:21:02.147Z,7748.00
2017-09-17T07:22:02.101Z,7624.00
2017-09-17T07:23:02.076Z,7480.00
2017-09-17T07:24:02.042Z,7300.00
2017-09-17T07:25:02.014Z,7188.00
2017-09-17T07:26:01.980Z,7224.00
2017-09-17T07:27:01.944Z,7224.00
2017-09-17T07:28:01.920Z,7180.00
2017-09-17T07:29:01.875Z,7000.00
2017-09-17T07:30:01.844Z,6956.00
2017-09-17T07:31:01.813Z,7268.00
2017-09-17T07:32:01.786Z,7292.00
2017-09-17T07:33:01.755Z,7212.00
2017-09-17T07:34:01.713Z,7128.00
2017-09-17T07:35:01.699Z,7064.00
2017-09-17T07:36:01.653Z,6992.00
2017-09-17T07:37:01.617Z,6912.00
2017-09-17T07:38:01.585Z,6792.00
2017-09-17T07:39:01.553Z,6640.00
2017-09-17T07:40:01.521Z,6688.00
2017-09-17T07:41:01.493Z,6768.00
2017-09-17T07:42:01.460Z,6824.00
2017-09-17T07:43:01.422Z,6908.00
2017-09-17T07:44:01.392Z,7028.00
2017-09-17T07:45:01.356Z,7164.00
2017-09-17T07:46:01.323Z,7284.00
2017-09-17T07:47:01.290Z,7352.00
2017-09-17T07:48:01.260Z,7728.00
2017-09-17T07:49:01.229Z,8040.00
2017-09-17T07:50:01.190Z,8224.00
2017-09-17T07:51:01.157Z,8464.00
2017-09-17T07:52:01.134Z,8500.00
2017-09-17T07:53:01.108Z,8392.00
2017-09-17T07:54:01.065Z,8176.00
2017-09-17T07:55:01.030Z,8096.00
2017-09-17T07:56:00.995Z,8344.00
2017-09-17T07:57:00.962Z,8476.00
2017-09-17T07:58:00.927Z,8124.00
2017-09-17T07:59:00.896Z,8112.00
2017-09-17T08:00:00.870Z,8168.00
2017-09-17T08:01:00.863Z,8240.00
2017-09-17T08:02:00.797Z,8172.00
2017-09-17T08:03:00.766Z,8120.00
2017-09-17T08:04:00.729Z,8272.00
2017-09-17T08:05:00.708Z,8340.00
2017-09-17T08:06:00.668Z,8164.00
2017-09-17T08:07:00.634Z,8104.00
2017-09-17T08:08:00.601Z,8272.00
2017-09-17T08:09:00.570Z,8344.00
2017-09-17T08:10:00.537Z,8324.00
2017-09-17T08:11:00.502Z,8408.00
2017-09-17T08:12:00.472Z,8500.00
2017-09-17T08:13:00.438Z,8464.00
2017-09-17T08:14:00.403Z,8400.00
2017-09-17T08:15:00.383Z,7828.00
2017-09-17T08:16:00.342Z,7884.00
2017-09-17T08:17:00.307Z,8096.00
2017-09-17T08:18:00.282Z,7712.00
2017-09-17T08:19:00.242Z,7532.00
2017-09-17T08:20:00.218Z,7544.00
2017-09-17T08:21:00.174Z,7568.00
2017-09-17T08:22:00.149Z,7208.00
2017-09-17T08:23:00.112Z,7476.00
2017-09-17T08:24:00.080Z,7400.00
2017-09-17T08:25:00.047Z,7096.00
2017-09-17T08:26:00.014Z,7012.00
2017-09-17T08:26:59.981Z,7184.00
2017-09-17T08:27:59.957Z,7144.00
2017-09-17T08:28:59.912Z,6952.00
2017-09-17T08:29:59.881Z,7392.00
2017-09-17T08:30:59.857Z,7652.00
2017-09-17T08:31:59.823Z,7748.00
2017-09-17T08:32:59.786Z,7840.00
2017-09-17T08:33:59.751Z,7716.00
2017-09-17T08:34:59.722Z,7928.00
2017-09-17T08:35:59.686Z,7608.00
2017-09-17T08:36:59.653Z,7844.00
2017-09-17T08:37:59.619Z,7952.00
2017-09-17T08:38:59.588Z,7932.00
2017-09-17T08:39:59.554Z,7908.00
2017-09-17T08:40:59.549Z,7872.00
2017-09-17T08:41:59.492Z,7920.00
2017-09-17T08:42:59.454Z,7904.00
2017-09-17T08:43:59.426Z,7816.00
2017-09-17T08:44:59.400Z,7736.00
2017-09-17T08:45:59.359Z,7668.00
2017-09-17T08:46:59.327Z,7728.00
2017-09-17T08:47:59.293Z,7960.00
2017-09-17T08:48:59.260Z,7860.00
2017-09-17T08:49:59.258Z,7680.00
2017-09-17T08:50:59.196Z,7436.00
2017-09-17T08:51:59.162Z,7480.00
2017-09-17T08:52:59.145Z,7396.00
2017-09-17T08:53:59.118Z,7408.00
2017-09-17T08:54:59.081Z,7244.00
2017-09-17T08:55:59.037Z,7156.00
2017-09-17T08:56:59.011Z,7152.00
2017-09-17T08:57:58.969Z,7024.00
2017-09-17T08:58:58.948Z,7208.00
2017-09-17T08:59:58.914Z,7368.00
2017-09-17T09:00:58.896Z,7684.00
2017-09-17T09:01:58.836Z,7704.00
2017-09-17T09:02:58.810Z,7712.00
2017-09-17T09:03:58.813Z,7948.00
2017-09-17T09:04:58.737Z,8100.00
2017-09-17T09:05:58.713Z,8264.00
2017-09-17T09:06:58.676Z,8344.00
2017-09-17T09:07:58.647Z,8332.00
2017-09-17T09:08:58.617Z,7992.00
2017-09-17T09:09:58.580Z,7888.00
2017-09-17T09:10:58.569Z,8132.00
2017-09-17T09:11:58.544Z,8272.00
2017-09-17T09:12:58.482Z,8204.00
2017-09-17T09:13:58.464Z,8164.00
2017-09-17T09:14:58.420Z,8088.00
2017-09-17T09:15:58.383Z,7896.00
2017-09-17T09:16:58.350Z,7920.00
2017-09-17T09:17:58.390Z,7944.00
2017-09-17T09:18:58.289Z,7924.00
2017-09-17T09:19:58.248Z,7908.00
2017-09-17T09:20:58.219Z,7740.00
2017-09-17T09:21:58.244Z,7712.00
2017-09-17T09:22:58.180Z,7644.00
2017-09-17T09:23:58.125Z,7664.00
2017-09-17T09:24:58.101Z,7832.00
2017-09-17T09:25:58.057Z,7788.00
2017-09-17T09:26:58.030Z,7740.00
2017-09-17T09:27:57.991Z,7816.00
2017-09-17T09:28:57.953Z,7840.00
2017-09-17T09:29:57.930Z,7732.00
2017-09-17T09:30:57.900Z,7632.00
2017-09-17T09:31:57.862Z,7604.00
2017-09-17T09:32:57.828Z,7644.00
2017-09-17T09:33:57.799Z,7612.00
2017-09-17T09:34:57.762Z,7580.00
2017-09-17T09:35:57.731Z,7500.00
2017-09-17T09:36:57.697Z,7444.00
2017-09-17T09:37:57.666Z,7292.00
2017-09-17T09:38:57.632Z,7384.00
2017-09-17T09:39:57.609Z,7232.00
2017-09-17T09:40:57.566Z,6728.00
2017-09-17T09:41:57.535Z,6740.00
2017-09-17T09:42:57.501Z,7132.00
2017-09-17T09:43:57.466Z,7260.00
2017-09-17T09:44:57.436Z,7372.00
2017-09-17T09:45:57.404Z,7508.00
2017-09-17T09:46:57.372Z,7612.00
2017-09-17T09:47:57.339Z,7640.00
2017-09-17T09:48:57.307Z,7656.00
2017-09-17T09:49:57.275Z,7676.00
2017-09-17T09:50:57.243Z,7672.00
2017-09-17T09:51:57.212Z,7640.00
2017-09-17T09:52:57.177Z,7572.00
2017-09-17T09:53:57.149Z,7580.00
2017-09-17T09:54:57.114Z,7508.00
2017-09-17T09:55:57.081Z,7480.00
2017-09-17T09:56:57.048Z,7460.00
2017-09-17T09:57:57.016Z,7448.00
2017-09-17T09:58:56.984Z,7424.00
2017-09-17T09:59:56.954Z,7416.00
2017-09-17T10:00:56.919Z,7408.00
2017-09-17T10:01:56.891Z,7352.00
2017-09-17T10:02:56.855Z,7328.00
2017-09-17T10:03:56.834Z,7340.00
2017-09-17T10:04:56.791Z,7356.00
2017-09-17T10:05:56.765Z,7340.00
2017-09-17T10:06:56.739Z,7324.00
2017-09-17T10:07:57.647Z,7268.00
2017-09-17T10:08:56.657Z,7264.00
2017-09-17T10:09:56.634Z,6792.00
2017-09-17T10:10:56.599Z,7328.00
2017-09-17T10:11:56.562Z,7356.00
2017-09-17T10:12:56.530Z,7372.00
2017-09-17T10:13:56.502Z,7376.00
2017-09-17T10:14:56.468Z,7384.00
2017-09-17T10:15:56.435Z,7424.00
2017-09-17T10:16:56.401Z,7456.00
2017-09-17T10:17:56.372Z,7444.00
2017-09-17T10:18:56.335Z,7448.00
2017-09-17T10:19:56.307Z,7444.00
2017-09-17T10:20:56.272Z,7432.00
2017-09-17T10:21:56.244Z,7416.00
2017-09-17T10:22:56.217Z,7416.00
2017-09-17T10:23:56.178Z,7404.00
2017-09-17T10:24:56.153Z,7384.00
2017-09-17T10:25:56.121Z,7356.00
2017-09-17T10:26:56.082Z,7344.00
2017-09-17T10:27:56.053Z,7324.00
2017-09-17T10:28:56.014Z,7300.00
2017-09-17T10:29:55.989Z,7276.00
2017-09-17T10:30:55.952Z,7248.00
2017-09-17T10:31:55.920Z,7228.00
2017-09-17T10:32:55.893Z,7212.00
2017-09-17T10:33:55.855Z,7180.00
2017-09-17T10:34:55.823Z,7160.00
2017-09-17T10:35:55.792Z,7140.00
2017-09-17T10:36:55.759Z,7108.00
2017-09-17T10:37:55.735Z,7076.00
2017-09-17T10:38:55.695Z,7056.00
2017-09-17T10:39:55.670Z,7060.00
2017-09-17T10:40:55.629Z,7072.00
2017-09-17T10:41:55.599Z,7076.00
2017-09-17T10:42:55.563Z,7080.00
2017-09-17T10:43:55.543Z,7068.00
2017-09-17T10:44:55.507Z,7072.00
2017-09-17T10:45:55.468Z,7068.00
2017-09-17T10:46:55.440Z,7052.00
2017-09-17T10:47:55.404Z,7016.00
2017-09-17T10:48:55.370Z,6960.00
2017-09-17T10:49:55.350Z,6932.00
2017-09-17T10:50:55.312Z,5784.00
2017-09-17T10:51:55.280Z,5548.00
2017-09-17T10:52:55.245Z,6620.00
2017-09-17T10:53:55.213Z,6912.00
2017-09-17T10:54:55.178Z,7016.00
2017-09-17T10:55:56.244Z,7072.00
2017-09-17T10:56:55.113Z,7160.00
2017-09-17T10:57:55.082Z,7160.00
2017-09-17T10:58:55.051Z,7284.00
2017-09-17T10:59:55.253Z,7184.00
2017-09-17T11:00:55.058Z,7432.00
2017-09-17T11:01:55.127Z,7328.00
2017-09-17T11:02:54.923Z,7532.00
2017-09-17T11:03:54.900Z,7548.00
2017-09-17T11:04:54.884Z,7692.00
2017-09-17T11:05:54.912Z,7912.00
2017-09-17T11:06:54.824Z,6696.00
2017-09-17T11:07:54.800Z,6636.00
2017-09-17T11:08:54.840Z,6772.00
2017-09-17T11:09:54.726Z,7112.00
2017-09-17T11:10:54.821Z,7232.00
2017-09-17T11:11:54.649Z,7456.00
2017-09-17T11:12:54.619Z,8324.00
2017-09-17T11:13:54.616Z,8780.00
2017-09-17T11:14:54.671Z,8912.00
2017-09-17T11:15:54.597Z,8648.00
2017-09-17T11:16:54.545Z,8928.00
2017-09-17T11:17:54.495Z,9020.00
2017-09-17T11:18:54.488Z,9080.00
2017-09-17T11:19:54.414Z,9144.00
2017-09-17T11:20:54.376Z,9268.00
2017-09-17T11:21:54.357Z,9240.00
2017-09-17T11:22:54.466Z,9100.00
2017-09-17T11:23:54.278Z,9508.00
2017-09-17T11:24:54.245Z,8136.00
2017-09-17T11:25:54.304Z,8052.00
2017-09-17T11:26:54.245Z,8104.00
2017-09-17T11:27:54.158Z,8204.00
2017-09-17T11:28:54.162Z,8356.00
2017-09-17T11:29:54.077Z,8476.00
2017-09-17T11:30:54.072Z,8604.00
2017-09-17T11:31:54.005Z,8656.00
2017-09-17T11:32:54.052Z,8876.00
2017-09-17T11:33:54.000Z,9116.00
2017-09-17T11:34:53.989Z,9296.00
2017-09-17T11:35:53.893Z,9416.00
2017-09-17T11:36:53.949Z,9584.00
2017-09-17T11:37:53.825Z,9716.00
2017-09-17T11:38:53.812Z,9828.00
2017-09-17T11:39:53.768Z,10004.00
2017-09-17T11:40:53.821Z,10880.00
2017-09-17T11:41:53.763Z,11164.00
2017-09-17T11:42:53.723Z,11092.00
2017-09-17T11:43:53.635Z,10976.00
2017-09-17T11:44:53.738Z,10784.00
2017-09-17T11:45:53.671Z,10500.00
2017-09-17T11:46:53.560Z,9704.00
2017-09-17T11:47:53.552Z,9204.00
2017-09-17T11:48:53.498Z,8696.00
2017-09-17T11:49:53.752Z,8232.00
2017-09-17T11:50:53.443Z,7864.00
2017-09-17T11:51:53.477Z,7700.00
2017-09-17T11:52:53.636Z,7616.00
2017-09-17T11:53:53.402Z,7508.00
2017-09-17T11:54:53.304Z,7464.00
2017-09-17T11:55:53.280Z,7476.00
2017-09-17T11:56:53.236Z,7584.00
2017-09-17T11:57:53.256Z,7676.00
2017-09-17T11:58:53.183Z,7768.00
2017-09-17T11:59:53.177Z,7816.00
2017-09-17T12:00:53.129Z,7844.00
2017-09-17T12:01:53.133Z,7892.00
2017-09-17T12:02:53.112Z,7836.00
2017-09-17T12:03:53.121Z,7752.00
2017-09-17T12:04:53.213Z,7716.00
2017-09-17T12:05:53.021Z,7720.00
2017-09-17T12:06:52.993Z,7712.00
2017-09-17T12:07:52.914Z,7704.00
2017-09-17T12:08:52.877Z,7632.00
2017-09-17T12:09:53.825Z,7616.00
2017-09-17T12:10:52.804Z,7640.00
2017-09-17T12:11:52.797Z,7540.00
2017-09-17T12:12:52.773Z,7428.00
2017-09-17T12:13:52.792Z,7364.00
2017-09-17T12:14:53.674Z,7340.00
2017-09-17T12:15:52.661Z,7296.00
2017-09-17T12:16:52.625Z,7256.00
2017-09-17T12:17:52.631Z,7260.00
2017-09-17T12:18:52.571Z,7220.00
2017-09-17T12:19:52.532Z,7204.00
2017-09-17T12:20:52.510Z,7200.00
2017-09-17T12:21:53.147Z,7220.00
2017-09-17T12:22:52.446Z,7240.00
2017-09-17T12:23:52.446Z,7288.00
2017-09-17T12:24:52.371Z,7224.00
2017-09-17T12:25:52.361Z,7208.00
2017-09-17T12:26:52.333Z,7328.00
2017-09-17T12:27:52.360Z,7632.00
2017-09-17T12:28:52.250Z,7368.00